Time;durP1;ratioP1;P1;durP2;ratioP2;P2;SDS_P1;SDS_P2;PMS_P1;PMS_P2;Temp;Humidity;BMP_temperature;BMP_pressure;BME280_temperature;BME280_humidity;BME280_pressure;Samples;Min_cycle;Max_cycle;Signal;HPM_P1;HPM_P2
2022/01/05 06:06:16;;;;;;;3.45;1.20;;;;;;;4.04;85.46;96501.81;5807509;23;20055;-47
2022/01/05 06:08:42;;;;;;;3.38;1.15;;;;;;;3.92;86.04;96502.69;4952506;29;20122;-47
2022/01/05 06:11:08;;;;;;;2.67;1.00;;;;;;;4.08;84.37;96511.97;4955136;29;20027;-50
2022/01/05 06:13:33;;;;;;;2.40;0.93;;;;;;;4.11;85.08;96511.78;4954389;29;20031;-48
2022/01/05 06:15:58;;;;;;;1.50;0.80;;;;;;;4.03;85.07;96510.53;4954978;29;20046;-49
2022/01/05 06:18:24;;;;;;;3.80;0.90;;;;;;;4.03;84.86;96510.53;4954277;28;20030;-50
2022/01/05 06:20:49;;;;;;;3.40;0.70;;;;;;;4.11;84.68;96527.34;4933806;29;20027;-51
2022/01/05 06:23:14;;;;;;;3.30;1.17;;;;;;;4.13;84.06;96535.81;4944245;29;20078;-54
2022/01/05 06:25:40;;;;;;;3.35;1.20;;;;;;;4.00;85.56;96544.47;4952469;29;20419;-48
2022/01/05 06:28:10;;;;;;;3.58;1.10;;;;;;;3.97;85.75;96547.28;4943843;29;20372;-51
2022/01/05 06:30:37;;;;;;;3.08;0.70;;;;;;;3.90;85.80;96574.56;4936245;29;20042;-49
2022/01/05 06:33:02;;;;;;;1.40;0.60;;;;;;;3.83;84.56;96599.25;4938511;29;20029;-51
2022/01/05 06:35:28;;;;;;;2.78;1.58;;;;;;;3.86;84.72;96622.41;4954295;29;20057;-51
2022/01/05 06:37:53;;;;;;;1.50;0.60;;;;;;;3.72;84.86;96645.84;4939241;29;20027;-51
2022/01/05 06:40:19;;;;;;;1.98;0.60;;;;;;;3.61;84.39;96643.91;4954883;29;20078;-52
2022/01/05 06:42:44;;;;;;;1.40;0.70;;;;;;;3.40;84.87;96661.69;4938910;29;20063;-51
2022/01/05 06:45:10;;;;;;;1.65;0.65;;;;;;;3.43;83.23;96666.69;4955626;29;20074;-48
2022/01/05 06:47:35;;;;;;;1.65;0.77;;;;;;;2.99;84.13;96678.09;4945364;29;20035;-47
2022/01/05 06:50:00;;;;;;;0.95;0.65;;;;;;;2.77;82.89;96688.13;4936130;29;20029;-49
2022/01/05 06:52:26;;;;;;;1.38;0.57;;;;;;;2.65;82.96;96689.72;4937261;29;20028;-49
2022/01/05 06:54:51;;;;;;;2.45;0.65;;;;;;;2.58;83.02;96706.53;4951771;29;20034;-48
2022/01/05 06:57:17;;;;;;;1.45;0.50;;;;;;;2.63;81.54;96708.88;4941991;29;20075;-46
2022/01/05 06:59:42;;;;;;;1.10;0.43;;;;;;;2.46;83.19;96731.41;4936075;29;20082;-47
2022/01/05 07:02:07;;;;;;;1.50;0.50;;;;;;;2.38;81.29;96725.88;4951165;29;20093;-51
2022/01/05 07:04:33;;;;;;;2.83;0.60;;;;;;;2.40;80.91;96762.81;4952086;28;20027;-48
2022/01/05 07:06:58;;;;;;;2.80;0.68;;;;;;;2.29;80.47;96762.63;4954981;29;20039;-47
2022/01/05 07:09:24;;;;;;;2.08;0.73;;;;;;;2.09;81.87;96764.59;4953520;29;20023;-48
2022/01/05 07:11:49;;;;;;;1.30;0.60;;;;;;;2.22;81.39;96779.41;4954451;29;20031;-48
2022/01/05 07:14:14;;;;;;;4.75;0.80;;;;;;;2.29;81.12;96789.31;4949039;28;20031;-48
2022/01/05 07:16:40;;;;;;;2.35;0.95;;;;;;;2.26;81.30;96801.59;4953474;29;20031;-50
2022/01/05 07:19:05;;;;;;;3.42;1.00;;;;;;;2.25;81.23;96799.94;4954144;29;20031;-49
2022/01/05 07:21:33;;;;;;;3.17;1.00;;;;;;;2.28;81.64;96804.94;4938749;29;20032;-50
2022/01/05 07:24:00;;;;;;;2.40;0.80;;;;;;;2.34;80.91;96810.59;4944676;29;20031;-50
2022/01/05 07:26:25;;;;;;;2.53;1.00;;;;;;;2.30;80.53;96821.19;4953100;29;20031;-49
2022/01/05 07:28:50;;;;;;;4.80;0.93;;;;;;;2.36;80.80;96819.09;4949541;29;20033;-47
2022/01/05 07:31:16;;;;;;;2.72;0.80;;;;;;;2.34;79.09;96826.13;4942471;29;20443;-51
2022/01/05 07:33:41;;;;;;;2.90;1.00;;;;;;;2.29;80.14;96827.31;4935120;29;20042;-50
2022/01/05 07:36:07;;;;;;;4.15;1.20;;;;;;;2.29;79.59;96828.13;4934212;29;20028;-52
2022/01/05 07:38:32;;;;;;;2.90;0.98;;;;;;;2.19;81.14;96846.84;4935693;29;20118;-48
2022/01/05 07:40:57;;;;;;;4.93;1.50;;;;;;;1.97;83.12;96853.22;4942848;29;20041;-48
2022/01/05 07:43:23;;;;;;;4.05;1.40;;;;;;;1.90;82.36;96854.50;4952960;28;20037;-48
2022/01/05 07:45:49;;;;;;;4.85;1.30;;;;;;;1.89;82.28;96855.38;4950516;29;20384;-49
2022/01/05 07:48:14;;;;;;;5.28;1.23;;;;;;;1.98;82.71;96854.91;4938109;28;20568;-50
2022/01/05 07:50:40;;;;;;;5.70;1.70;;;;;;;1.97;82.80;96880.84;4951064;28;20022;-50
2022/01/05 07:53:05;;;;;;;6.63;1.67;;;;;;;1.99;82.83;96882.41;4938233;29;20023;-48
2022/01/05 07:55:31;;;;;;;8.55;2.15;;;;;;;2.14;82.44;96881.56;4946171;29;20402;-49
2022/01/05 07:57:59;;;;;;;8.27;2.33;;;;;;;2.13;81.98;96884.22;4953811;29;20081;-50
2022/01/05 08:00:24;;;;;;;14.63;3.42;;;;;;;2.04;82.68;96890.75;4923622;29;20475;-51
2022/01/05 08:02:50;;;;;;;7.97;2.67;;;;;;;2.03;82.68;96907.22;4945371;29;20035;-49
2022/01/05 08:05:15;;;;;;;7.90;2.10;;;;;;;2.02;83.44;96905.53;4945706;29;20042;-50
2022/01/05 08:07:40;;;;;;;5.75;1.88;;;;;;;2.11;81.99;96911.97;4945565;29;20483;-50
2022/01/05 08:10:06;;;;;;;4.47;1.33;;;;;;;2.21;80.07;96933.81;4950260;29;20025;-51
2022/01/05 08:12:31;;;;;;;4.90;1.30;;;;;;;2.31;79.67;96936.72;4953452;29;20407;-50
2022/01/05 08:14:57;;;;;;;3.50;1.42;;;;;;;2.24;79.27;96938.00;4940668;29;20365;-50
2022/01/05 08:17:22;;;;;;;4.75;1.52;;;;;;;2.14;79.88;96937.66;4956730;29;20089;-47
2022/01/05 08:19:47;;;;;;;4.55;1.65;;;;;;;2.23;79.17;96949.25;4946303;29;20497;-47
2022/01/05 08:22:13;;;;;;;9.00;2.00;;;;;;;2.14;80.29;96958.34;4946607;29;20050;-48
2022/01/05 08:24:39;;;;;;;3.63;1.20;;;;;;;2.23;80.03;96951.81;4955415;29;20373;-48
2022/01/05 08:27:04;;;;;;;8.27;1.63;;;;;;;1.97;80.29;96954.09;4945588;29;20106;-47
2022/01/05 08:29:30;;;;;;;7.47;2.03;;;;;;;2.10;79.82;96962.03;4941699;29;20031;-48
2022/01/05 08:31:55;;;;;;;6.45;1.60;;;;;;;2.14;78.79;96964.34;4956741;29;20031;-49
2022/01/05 08:34:21;;;;;;;5.45;1.80;;;;;;;2.04;78.10;96986.47;4955955;29;20027;-50
2022/01/05 08:36:46;;;;;;;5.43;1.95;;;;;;;1.88;78.48;96977.84;4938818;29;20035;-47
2022/01/05 08:39:13;;;;;;;9.60;2.25;;;;;;;1.95;78.33;96999.88;4952878;29;20045;-48
2022/01/05 08:41:39;;;;;;;9.48;2.15;;;;;;;1.88;78.50;97008.88;4939731;29;20110;-46
2022/01/05 08:44:04;;;;;;;6.18;2.53;;;;;;;1.90;80.13;97015.66;4941934;29;20364;-50
2022/01/05 08:46:30;;;;;;;7.20;2.20;;;;;;;2.08;79.58;97023.34;4938383;29;20039;-50
2022/01/05 08:48:55;;;;;;;13.10;2.67;;;;;;;1.94;79.37;97007.72;4944649;29;20011;-48
2022/01/05 08:51:21;;;;;;;6.13;2.50;;;;;;;1.94;78.29;97016.31;4956880;29;20483;-49
2022/01/05 08:53:46;;;;;;;8.93;2.88;;;;;;;1.87;78.17;97030.50;4956109;29;20094;-48
2022/01/05 08:56:11;;;;;;;7.30;2.25;;;;;;;1.79;78.84;97015.38;4953110;29;20039;-49
2022/01/05 08:58:37;;;;;;;9.57;3.53;;;;;;;1.84;79.09;97017.72;4943331;29;20023;-47
2022/01/05 09:01:02;;;;;;;7.63;2.92;;;;;;;1.71;78.62;97032.19;4940885;29;20135;-51
2022/01/05 09:03:28;;;;;;;12.13;3.35;;;;;;;1.74;79.02;97021.69;4936858;29;20023;-52
2022/01/05 09:05:53;;;;;;;10.32;3.50;;;;;;;1.73;79.37;97035.53;4945571;29;20027;-48
2022/01/05 09:08:18;;;;;;;13.60;3.78;;;;;;;1.97;78.28;97031.66;4938606;29;20035;-51
2022/01/05 09:10:44;;;;;;;10.57;3.28;;;;;;;1.94;78.74;97033.59;4940178;29;20030;-50
2022/01/05 09:13:09;;;;;;;9.20;3.60;;;;;;;2.00;78.46;97041.84;4938238;29;20030;-50
2022/01/05 09:15:35;;;;;;;9.32;3.30;;;;;;;1.98;77.62;97041.09;4937873;29;20439;-49
2022/01/05 09:18:01;;;;;;;7.72;2.60;;;;;;;1.95;77.90;97056.78;4937136;29;20030;-50
2022/01/05 09:20:26;;;;;;;12.88;3.28;;;;;;;1.78;78.15;97049.88;4925499;29;20030;-49
2022/01/05 09:22:52;;;;;;;11.35;3.80;;;;;;;1.80;78.65;97067.91;4955351;29;20035;-49
2022/01/05 09:25:18;;;;;;;11.05;3.45;;;;;;;1.87;78.00;97084.78;4949954;29;20032;-51
2022/01/05 09:27:44;;;;;;;13.27;3.80;;;;;;;1.64;78.17;97079.03;4936154;29;20039;-50
2022/01/05 09:30:11;;;;;;;12.10;3.40;;;;;;;1.67;78.13;97084.03;4921932;29;20024;-51
2022/01/05 09:32:37;;;;;;;10.02;3.05;;;;;;;1.74;77.91;97071.66;4948131;29;20046;-48
2022/01/05 09:35:04;;;;;;;12.05;3.40;;;;;;;1.52;78.82;97081.41;4939056;29;20019;-49
2022/01/05 09:37:34;;;;;;;9.75;3.30;;;;;;;1.63;77.99;97092.03;4944913;29;20028;-49
2022/01/05 09:42:44;;;;;;;9.63;2.60;;;;;;;1.72;75.81;97095.91;4936671;29;20039;-50
2022/01/05 09:45:15;;;;;;;7.50;2.50;;;;;;;1.66;75.07;97100.47;4940455;29;20114;-49
2022/01/05 09:47:49;;;;;;;9.25;2.72;;;;;;;1.76;74.68;97098.28;4943750;29;20031;-50
2022/01/05 09:50:15;;;;;;;8.07;2.22;;;;;;;1.78;74.27;97105.94;4955702;29;20451;-51
2022/01/05 09:52:45;;;;;;;10.57;2.17;;;;;;;1.72;73.62;97106.22;4943224;29;20020;-49
2022/01/05 09:55:11;;;;;;;10.05;3.00;;;;;;;1.93;73.32;97120.69;4928283;29;20038;-49
2022/01/05 09:57:38;;;;;;;7.88;2.45;;;;;;;1.94;72.44;97119.75;4944450;29;20491;-48
2022/01/05 10:00:04;;;;;;;7.95;2.20;;;;;;;1.88;73.48;97117.47;4922986;29;20032;-48
2022/01/05 10:02:30;;;;;;;5.60;1.95;;;;;;;2.03;74.74;97110.66;4939043;29;20023;-50
2022/01/05 10:04:56;;;;;;;6.50;2.08;;;;;;;2.09;73.32;97116.38;4938097;29;20106;-48
2022/01/05 10:07:21;;;;;;;7.22;2.22;;;;;;;1.95;73.91;97108.50;4935099;29;20027;-52
2022/01/05 10:09:48;;;;;;;7.95;2.10;;;;;;;1.91;71.92;97125.09;4903418;29;20095;-49
2022/01/05 10:12:14;;;;;;;3.97;1.45;;;;;;;1.92;68.75;97146.59;4936296;29;20023;-49
2022/01/05 10:14:40;;;;;;;5.55;1.33;;;;;;;1.72;67.82;97165.69;4954949;29;20129;-48
2022/01/05 10:17:13;;;;;;;3.63;1.00;;;;;;;1.66;67.55;97139.25;4937369;28;20122;-48
2022/01/05 10:19:38;;;;;;;6.22;1.70;;;;;;;1.65;66.89;97142.75;4955167;29;20387;-51
2022/01/05 10:22:04;;;;;;;4.50;1.77;;;;;;;1.67;68.43;97156.44;4954304;29;20041;-48
2022/01/05 10:24:43;;;;;;;6.82;1.40;;;;;;;1.68;66.58;97157.25;4954545;29;20038;-48
2022/01/05 10:27:13;;;;;;;7.40;1.95;;;;;;;1.69;68.15;97158.94;4935706;29;20027;-49
2022/01/05 10:29:39;;;;;;;8.55;1.85;;;;;;;1.92;67.38;97162.13;4941567;29;20632;-49
2022/01/05 10:32:05;;;;;;;8.50;2.40;;;;;;;2.25;66.54;97157.81;4912959;29;20116;-49
2022/01/05 10:34:31;;;;;;;9.40;1.63;;;;;;;2.54;65.26;97163.22;4902775;29;20042;-49
2022/01/05 10:36:59;;;;;;;7.90;1.77;;;;;;;2.61;65.95;97178.34;4920581;29;20538;-49
2022/01/05 10:39:31;;;;;;;7.18;2.03;;;;;;;2.40;67.46;97161.34;4951589;28;20085;-49
2022/01/05 10:42:03;;;;;;;5.35;1.98;;;;;;;2.43;65.79;97170.72;4922249;29;20049;-49
2022/01/05 10:44:28;;;;;;;5.22;1.75;;;;;;;2.28;66.07;97172.34;4953872;29;20091;-50
2022/01/05 10:46:55;;;;;;;7.00;1.70;;;;;;;2.39;66.43;97180.38;4939236;29;20031;-54
2022/01/05 10:49:40;;;;;;;6.88;2.00;;;;;;;2.17;67.25;97185.84;4947427;29;20035;-49
2022/01/05 10:52:27;;;;;;;7.32;2.88;;;;;;;2.62;67.45;97181.78;4953809;29;20031;-48
2022/01/05 10:54:53;;;;;;;6.95;2.03;;;;;;;2.85;66.38;97180.53;4954267;29;20073;-48
2022/01/05 10:57:19;;;;;;;9.15;2.10;;;;;;;3.03;66.52;97173.53;4936296;29;20078;-49
2022/01/05 10:59:53;;;;;;;5.47;1.55;;;;;;;3.27;66.00;97185.16;4918370;29;20447;-49
2022/01/05 11:02:32;;;;;;;7.32;2.28;;;;;;;3.26;68.01;97177.44;4922407;29;20023;-51
2022/01/05 11:05:06;;;;;;;5.60;1.70;;;;;;;3.56;63.22;97180.91;4936352;29;20027;-52
2022/01/05 11:07:34;;;;;;;7.45;1.65;;;;;;;3.47;63.61;97176.22;4934977;29;20488;-49
2022/01/05 11:10:07;;;;;;;4.85;1.77;;;;;;;3.26;60.91;97180.88;4936056;29;20107;-49
2022/01/05 11:12:35;;;;;;;9.52;1.60;;;;;;;3.03;61.42;97187.34;4935957;29;20476;-50
2022/01/05 11:15:18;;;;;;;7.18;1.80;;;;;;;3.01;63.18;97168.44;4935060;29;20028;-49
2022/01/05 11:18:11;;;;;;;8.10;1.70;;;;;;;3.24;61.28;97168.94;4942307;29;20162;-53
2022/01/05 11:20:51;;;;;;;4.85;1.42;;;;;;;2.96;62.04;97170.44;4940577;29;20039;-50
2022/01/05 11:23:20;;;;;;;6.43;1.85;;;;;;;3.28;61.65;97180.78;4953286;29;20122;-53
2022/01/05 11:25:45;;;;;;;10.88;1.95;;;;;;;3.53;61.21;97181.09;4953916;29;20023;-49
2022/01/05 11:28:11;;;;;;;5.50;1.63;;;;;;;3.11;60.21;97186.06;4951727;29;20100;-49
2022/01/05 11:30:36;;;;;;;7.32;1.92;;;;;;;3.30;61.33;97184.13;4935490;29;20027;-48
2022/01/05 11:33:03;;;;;;;7.38;1.63;;;;;;;3.51;60.09;97190.72;4946695;29;20390;-50
2022/01/05 11:35:28;;;;;;;7.75;2.03;;;;;;;3.63;59.30;97188.34;4953851;29;20031;-50
2022/01/05 11:37:54;;;;;;;6.53;1.48;;;;;;;3.76;58.92;97181.53;4945715;29;20038;-52
2022/01/05 11:40:20;;;;;;;7.47;1.70;;;;;;;3.56;59.43;97186.09;4935811;29;20472;-49
2022/01/05 11:42:48;;;;;;;9.90;1.98;;;;;;;3.40;60.09;97193.06;4922792;29;20057;-48
2022/01/05 11:45:27;;;;;;;9.82;2.10;;;;;;;3.17;58.98;97198.69;4959259;28;20023;-49
2022/01/05 11:47:56;;;;;;;8.40;1.85;;;;;;;3.11;59.71;97191.25;4949893;29;20027;-50
2022/01/05 11:50:26;;;;;;;7.88;1.83;;;;;;;3.25;58.94;97189.56;4921027;29;20019;-51
2022/01/05 11:52:52;;;;;;;4.60;1.75;;;;;;;3.16;57.62;97192.66;4950236;29;20375;-51
2022/01/05 11:55:18;;;;;;;6.88;1.70;;;;;;;3.09;57.81;97197.34;4936546;29;20023;-49
2022/01/05 11:58:12;;;;;;;6.32;1.40;;;;;;;2.76;58.38;97199.19;4949006;29;20026;-48
2022/01/05 12:00:37;;;;;;;5.22;1.70;;;;;;;2.68;58.45;97209.09;4935591;29;20083;-49
2022/01/05 12:03:03;;;;;;;6.55;1.35;;;;;;;2.64;59.34;97215.34;4935721;29;20036;-48
2022/01/05 12:05:28;;;;;;;5.50;1.70;;;;;;;2.57;59.45;97210.47;4934566;29;20087;-52
2022/01/05 12:07:55;;;;;;;5.10;1.60;;;;;;;2.51;59.58;97210.81;4938434;29;20500;-52
2022/01/05 12:10:21;;;;;;;5.15;1.60;;;;;;;2.23;58.74;97215.72;4946649;29;20023;-49
2022/01/05 12:13:01;;;;;;;9.23;1.58;;;;;;;2.01;59.66;97226.31;4951966;29;20205;-48
2022/01/05 12:15:41;;;;;;;11.27;2.00;;;;;;;1.95;59.43;97227.44;4917848;29;20086;-50
2022/01/05 12:18:06;;;;;;;5.35;1.38;;;;;;;1.98;59.46;97213.53;4949096;29;20027;-48
2022/01/05 12:20:36;;;;;;;4.43;1.20;;;;;;;2.05;59.39;97233.00;4950952;29;20039;-47
2022/01/05 12:23:17;;;;;;;3.88;1.30;;;;;;;1.94;58.53;97230.97;4935125;29;20028;-49
2022/01/05 12:26:09;;;;;;;6.15;1.80;;;;;;;1.99;59.06;97228.13;4937952;29;20124;-47
2022/01/05 12:28:39;;;;;;;6.43;1.85;;;;;;;1.96;57.60;97218.81;4947777;29;20067;-49
2022/01/05 12:31:05;;;;;;;5.55;1.42;;;;;;;2.07;57.45;97226.84;4935354;29;20051;-49
2022/01/05 12:33:48;;;;;;;6.00;1.40;;;;;;;2.27;58.52;97227.59;4933622;29;20032;-48
2022/01/05 12:36:19;;;;;;;5.80;1.60;;;;;;;2.41;57.32;97230.34;4943778;29;20027;-50
2022/01/05 12:38:45;;;;;;;6.13;1.60;;;;;;;2.46;58.62;97228.31;4903705;29;20055;-50
2022/01/05 12:41:29;;;;;;;5.43;1.50;;;;;;;2.56;56.00;97226.94;4935566;29;20028;-48
2022/01/05 12:43:56;;;;;;;6.75;2.03;;;;;;;2.58;58.14;97243.25;4942208;29;20039;-51
2022/01/05 12:46:32;;;;;;;8.57;1.50;;;;;;;2.61;56.70;97248.25;4948149;29;20027;-49
2022/01/05 12:48:58;;;;;;;4.80;1.67;;;;;;;2.36;58.74;97240.06;4952508;29;20027;-51
2022/01/05 12:51:32;;;;;;;7.50;2.00;;;;;;;2.28;57.92;97255.16;4932770;29;20079;-49
2022/01/05 12:54:03;;;;;;;8.90;1.92;;;;;;;2.32;58.32;97252.31;4943598;29;20550;-50
2022/01/05 12:56:35;;;;;;;10.57;1.90;;;;;;;2.60;57.45;97256.91;4940889;29;20040;-49
2022/01/05 12:59:01;;;;;;;;;;;;;;;2.58;58.64;97252.72;4917895;29;20118;-48
2022/01/05 13:01:27;;;;;;;5.75;1.38;;;;;;;2.51;57.43;97249.66;4936666;29;20001;-49
2022/01/05 13:03:54;;;;;;;8.27;1.52;;;;;;;2.29;58.38;97254.22;4949564;29;20035;-49
2022/01/05 13:06:29;;;;;;;5.32;1.75;;;;;;;2.38;58.71;97262.38;4939498;29;20024;-51
2022/01/05 13:08:59;;;;;;;10.20;1.60;;;;;;;2.33;57.36;97260.91;4937601;29;20070;-49
2022/01/05 13:11:38;;;;;;;7.38;1.58;;;;;;;2.18;58.60;97269.47;4938858;29;20027;-47
2022/01/05 13:14:18;;;;;;;5.70;1.50;;;;;;;2.09;58.84;97275.91;4939264;29;20031;-49
2022/01/05 13:16:50;;;;;;;5.13;1.35;;;;;;;2.20;59.52;97265.88;4953131;29;20440;-49
2022/01/05 13:19:25;;;;;;;6.60;1.23;;;;;;;1.88;59.32;97267.47;4958235;29;20023;-47
2022/01/05 13:21:50;;;;;;;5.00;1.33;;;;;;;1.93;59.77;97273.25;4955444;29;20039;-50
2022/01/05 13:24:16;;;;;;;6.03;1.60;;;;;;;1.79;61.36;97254.97;4945294;28;20027;-49
2022/01/05 13:26:59;;;;;;;10.27;1.80;;;;;;;2.02;59.05;97275.38;4956267;29;20065;-51
2022/01/05 13:29:28;;;;;;;9.88;1.77;;;;;;;1.89;61.52;97279.47;4952206;29;20058;-48
2022/01/05 13:32:10;;;;;;;5.53;1.83;;;;;;;1.95;61.36;97286.09;4939192;29;20027;-49
2022/01/05 13:34:36;;;;;;;;;;;;;;;2.01;61.28;97293.56;4949857;29;20031;-50
2022/01/05 13:37:03;;;;;;;7.10;1.55;;;;;;;2.05;61.12;97284.75;4956096;29;19917;-52
2022/01/05 13:39:41;;;;;;;10.30;2.10;;;;;;;1.84;61.91;97287.47;4926959;29;20027;-55
2022/01/05 13:42:08;;;;;;;5.50;1.48;;;;;;;1.81;62.44;97281.59;4941631;29;20158;-53
2022/01/05 13:44:34;;;;;;;8.23;1.70;;;;;;;2.04;61.49;97291.66;4956016;29;20511;-47
2022/01/05 13:47:02;;;;;;;5.57;1.60;;;;;;;1.94;62.30;97293.03;4936839;29;20109;-48
2022/01/05 13:49:28;;;;;;;5.60;1.70;;;;;;;2.04;62.30;97293.44;4920521;29;20028;-49
2022/01/05 13:52:04;;;;;;;5.07;1.45;;;;;;;2.04;63.09;97296.00;4938368;29;20399;-49
2022/01/05 13:54:34;;;;;;;6.30;1.60;;;;;;;2.06;62.21;97302.75;4936458;29;20031;-48
2022/01/05 13:57:00;;;;;;;8.52;1.65;;;;;;;1.99;61.45;97293.63;4940637;29;20027;-49
2022/01/05 13:59:37;;;;;;;7.55;1.83;;;;;;;1.77;63.67;97295.59;4920186;29;20522;-48
2022/01/05 14:02:02;;;;;;;7.93;1.70;;;;;;;1.91;63.19;97295.75;4941179;29;20106;-48
2022/01/05 14:04:27;;;;;;;6.97;2.05;;;;;;;2.03;63.72;97307.25;4926260;29;20123;-48
2022/01/05 14:06:59;;;;;;;10.02;2.42;;;;;;;2.08;61.86;97293.19;4921806;29;20054;-47
2022/01/05 14:09:29;;;;;;;;;;;;;;;1.79;64.92;97315.31;4954213;29;20054;-46
2022/01/05 14:11:57;;;;;;;5.97;1.90;;;;;;;2.07;63.97;97324.31;4954384;29;19956;-48
2022/01/05 14:14:22;;;;;;;7.80;1.80;;;;;;;2.14;62.67;97333.47;4953143;28;20483;-47
2022/01/05 14:16:48;;;;;;;8.23;2.42;;;;;;;2.02;62.55;97327.09;4920912;29;20037;-48
2022/01/05 14:19:14;;;;;;;7.15;1.88;;;;;;;1.95;62.14;97320.56;4937041;29;20035;-47
2022/01/05 14:21:47;;;;;;;7.10;1.40;;;;;;;1.77;62.49;97326.63;4945835;29;20031;-50
2022/01/05 14:24:32;;;;;;;10.85;2.40;;;;;;;1.71;63.56;97337.25;4938974;29;20024;-51
2022/01/05 14:26:58;;;;;;;9.82;2.17;;;;;;;1.92;63.33;97340.56;4941834;29;20509;-49
2022/01/05 14:29:24;;;;;;;11.88;2.35;;;;;;;1.80;62.93;97331.66;4940541;29;20031;-47
2022/01/05 14:31:50;;;;;;;6.30;1.73;;;;;;;1.76;62.95;97330.13;4953852;28;20106;-48
2022/01/05 14:34:20;;;;;;;7.30;2.75;;;;;;;1.76;64.42;97327.53;4917840;29;20041;-48
2022/01/05 14:36:47;;;;;;;8.52;1.83;;;;;;;1.82;64.54;97340.97;4945829;29;20042;-50
2022/01/05 14:39:17;;;;;;;7.25;1.90;;;;;;;1.77;64.48;97336.97;4952246;29;20140;-47
2022/01/05 14:41:48;;;;;;;9.38;2.03;;;;;;;1.69;64.36;97329.56;4965933;28;20053;-48
2022/01/05 14:44:18;;;;;;;5.30;1.67;;;;;;;1.63;65.08;97335.84;4965841;28;20023;-50
2022/01/05 14:46:46;;;;;;;4.97;1.92;;;;;;;1.57;65.20;97336.13;4937812;29;20023;-49
2022/01/05 14:49:11;;;;;;;10.13;2.10;;;;;;;1.74;65.61;97337.09;4950257;29;20023;-50
2022/01/05 14:51:37;;;;;;;10.35;1.85;;;;;;;1.62;65.94;97331.59;4924503;29;20111;-48
2022/01/05 14:54:03;;;;;;;10.75;2.65;;;;;;;1.66;65.13;97330.53;4934711;29;20035;-48
2022/01/05 14:56:29;;;;;;;8.18;2.00;;;;;;;1.80;66.07;97331.66;4919992;29;20031;-49
2022/01/05 14:58:54;;;;;;;9.35;2.03;;;;;;;1.63;65.38;97340.19;4919283;29;20039;-50
2022/01/05 15:01:20;;;;;;;9.52;2.25;;;;;;;1.59;66.02;97339.50;4935204;29;20086;-48
2022/01/05 15:03:45;;;;;;;6.55;1.75;;;;;;;1.47;66.35;97344.38;4935194;29;20023;-48
2022/01/05 15:06:11;;;;;;;11.40;2.65;;;;;;;1.43;65.90;97343.69;4949210;29;20031;-49
2022/01/05 15:08:36;;;;;;;6.10;1.92;;;;;;;1.50;66.87;97339.06;4954820;29;20031;-47
2022/01/05 15:11:01;;;;;;;9.15;2.35;;;;;;;1.61;68.23;97347.16;4946853;29;20027;-49
2022/01/05 15:13:32;;;;;;;7.57;1.90;;;;;;;1.45;66.23;97334.13;4951964;29;20476;-47
2022/01/05 15:15:57;;;;;;;5.28;1.80;;;;;;;1.39;66.91;97334.41;4939918;29;20399;-48
2022/01/05 15:18:22;;;;;;;6.97;2.10;;;;;;;1.29;67.72;97341.72;4953376;29;20039;-47
2022/01/05 15:20:49;;;;;;;8.18;1.90;;;;;;;1.32;68.53;97335.59;4943199;29;20097;-49
2022/01/05 15:23:14;;;;;;;5.85;1.80;;;;;;;1.26;67.33;97351.34;4917844;29;20487;-52
2022/01/05 15:25:40;;;;;;;7.90;1.92;;;;;;;1.30;67.28;97345.97;4939011;29;20031;-49
2022/01/05 15:28:05;;;;;;;8.90;2.63;;;;;;;1.09;68.81;97355.53;4952132;29;20038;-49
2022/01/05 15:30:30;;;;;;;5.50;1.80;;;;;;;1.14;68.13;97347.59;4952428;29;20471;-48
2022/01/05 15:32:56;;;;;;;7.28;2.42;;;;;;;1.16;69.19;97361.25;4952840;29;20023;-47
2022/01/05 15:35:21;;;;;;;6.15;2.28;;;;;;;1.18;69.53;97359.44;4952450;29;20033;-48
2022/01/05 15:37:47;;;;;;;7.63;2.60;;;;;;;1.13;67.80;97375.13;4952062;29;20027;-50
2022/01/05 15:40:13;;;;;;;8.32;2.50;;;;;;;1.14;68.49;97378.59;4951922;29;20399;-52
2022/01/05 15:42:38;;;;;;;7.10;1.98;;;;;;;1.22;68.42;97370.50;4935670;29;20423;-48
2022/01/05 15:45:04;;;;;;;7.30;2.13;;;;;;;1.27;67.82;97379.69;4928350;28;20026;-47
2022/01/05 15:47:30;;;;;;;5.63;1.77;;;;;;;1.30;67.76;97383.91;4955391;28;20027;-50
2022/01/05 15:49:55;;;;;;;5.75;2.17;;;;;;;1.21;68.11;97389.50;4939025;29;20054;-49
2022/01/05 15:52:20;;;;;;;4.63;2.03;;;;;;;1.32;66.41;97382.09;4951742;29;20033;-48
2022/01/05 15:54:52;;;;;;;6.35;2.20;;;;;;;1.15;68.25;97386.25;4952018;29;20027;-49
2022/01/05 16:02:42;;;;;;;7.43;1.92;;;;;;;1.19;67.84;97385.19;4934179;29;20034;-52
2022/01/05 16:05:07;;;;;;;9.45;2.40;;;;;;;1.06;67.99;97371.16;4937602;29;20035;-51
2022/01/05 16:07:33;;;;;;;6.97;2.63;;;;;;;1.15;67.13;97375.91;4951227;29;20407;-47
2022/01/05 16:09:58;;;;;;;7.93;2.00;;;;;;;1.14;67.32;97371.66;4949470;29;20024;-54
2022/01/05 16:12:24;;;;;;;6.57;2.08;;;;;;;1.08;67.13;97379.69;4935618;29;20039;-53
2022/01/05 16:14:50;;;;;;;7.10;2.30;;;;;;;1.17;66.91;97388.75;4933588;29;20518;-48
2022/01/05 16:17:15;;;;;;;9.65;2.15;;;;;;;1.07;66.83;97388.34;4934932;29;20090;-50
2022/01/05 16:19:40;;;;;;;10.43;2.75;;;;;;;0.94;68.04;97387.19;4934165;29;20483;-48
2022/01/05 16:22:06;;;;;;;7.13;1.88;;;;;;;1.24;66.40;97385.03;4941263;29;20447;-49
2022/01/05 16:24:31;;;;;;;10.20;2.00;;;;;;;1.11;67.35;97383.88;4953020;29;20052;-50
2022/01/05 16:26:57;;;;;;;6.68;2.13;;;;;;;1.12;67.18;97394.13;4951340;29;20443;-49
2022/01/05 16:29:23;;;;;;;8.13;2.30;;;;;;;1.11;67.21;97394.22;4953371;29;20033;-50
2022/01/05 16:31:48;;;;;;;6.60;1.75;;;;;;;1.14;67.24;97391.50;4949663;29;20472;-50
2022/01/05 16:34:13;;;;;;;8.13;1.90;;;;;;;1.07;67.55;97403.00;4935164;29;20090;-54
2022/01/05 16:36:43;;;;;;;7.38;2.42;;;;;;;1.00;68.06;97394.69;4946001;28;20020;-50
2022/01/05 16:39:10;;;;;;;7.50;2.83;;;;;;;0.99;68.70;97392.97;4938919;29;20082;-52
2022/01/05 16:41:35;;;;;;;7.30;2.00;;;;;;;1.05;68.78;97410.81;4939184;29;20027;-53
2022/01/05 16:44:01;;;;;;;6.82;2.38;;;;;;;0.99;68.74;97402.47;4937636;29;20395;-48
2022/01/05 16:46:27;;;;;;;7.00;2.13;;;;;;;0.97;68.49;97418.03;4940484;29;20043;-51
2022/01/05 16:48:53;;;;;;;9.13;2.40;;;;;;;0.95;68.81;97410.34;4956770;29;20062;-52
2022/01/05 16:51:18;;;;;;;6.75;2.10;;;;;;;1.01;68.54;97409.25;4941911;29;20476;-49
2022/01/05 16:53:45;;;;;;;6.65;2.15;;;;;;;1.12;68.64;97407.03;4937444;29;20028;-53
2022/01/05 16:56:13;;;;;;;8.57;1.98;;;;;;;1.01;67.80;97418.75;4949297;29;20138;-53
2022/01/05 17:01:23;;;;;;;8.82;2.30;;;;;;;0.92;68.60;97423.38;4953017;29;20031;-50
2022/01/05 17:03:50;;;;;;;8.52;2.53;;;;;;;0.96;69.38;97424.09;4945431;29;20498;-53
2022/01/05 17:06:15;;;;;;;9.32;2.22;;;;;;;0.90;69.01;97419.22;4937274;29;20721;-53
2022/01/05 17:08:40;;;;;;;8.25;2.40;;;;;;;1.01;68.68;97413.59;4937606;29;20027;-52
2022/01/05 17:11:06;;;;;;;3.75;1.80;;;;;;;0.95;68.98;97409.50;4937727;29;20020;-54
2022/01/05 17:13:32;;;;;;;9.80;2.30;;;;;;;1.03;69.05;97416.94;4938212;29;20062;-52
2022/01/05 17:15:57;;;;;;;7.18;2.05;;;;;;;1.00;68.79;97430.84;4938319;29;20031;-53
2022/01/05 17:18:22;;;;;;;7.15;1.92;;;;;;;1.06;67.72;97425.38;4937497;29;20372;-52
2022/01/05 17:20:49;;;;;;;7.10;2.25;;;;;;;1.01;68.11;97421.34;4937157;29;20031;-50
2022/01/05 17:23:14;;;;;;;9.93;2.88;;;;;;;1.06;68.45;97427.13;4938339;29;20039;-49
2022/01/05 17:25:39;;;;;;;7.97;1.95;;;;;;;1.00;68.45;97428.25;4940303;29;20125;-50
2022/01/05 17:28:05;;;;;;;5.97;2.33;;;;;;;1.02;68.13;97430.75;4955600;29;20027;-49
2022/01/05 17:30:30;;;;;;;9.02;2.13;;;;;;;1.08;67.68;97438.25;4954617;29;20419;-52
2022/01/05 17:32:56;;;;;;;5.00;2.00;;;;;;;0.97;68.09;97441.28;4951484;29;20372;-48
2022/01/05 17:35:21;;;;;;;7.60;1.80;;;;;;;1.07;67.73;97450.31;4936801;29;20114;-50
2022/01/05 17:37:47;;;;;;;6.32;1.83;;;;;;;1.03;67.89;97456.50;4938121;29;20039;-48
2022/01/05 17:40:12;;;;;;;6.13;2.33;;;;;;;1.10;68.29;97451.91;4937811;29;20028;-49
2022/01/05 17:42:38;;;;;;;7.53;2.80;;;;;;;1.22;67.80;97448.00;4936932;29;20047;-47
2022/01/05 17:45:04;;;;;;;11.95;3.97;;;;;;;1.24;68.11;97457.34;4953238;29;20031;-47
2022/01/05 17:47:30;;;;;;;7.63;2.17;;;;;;;1.40;67.46;97457.50;4941194;29;20092;-50
2022/01/05 17:49:55;;;;;;;8.75;2.47;;;;;;;1.19;67.27;97465.28;4940578;29;20023;-47
2022/01/05 17:52:20;;;;;;;9.32;3.38;;;;;;;1.22;68.02;97459.16;4955760;29;20498;-47
2022/01/05 17:54:46;;;;;;;13.40;4.53;;;;;;;1.18;68.67;97450.69;4952611;29;20031;-48
2022/01/05 17:57:11;;;;;;;18.38;5.97;;;;;;;1.20;68.71;97445.44;4953972;29;20521;-47
2022/01/05 17:59:36;;;;;;;11.38;3.47;;;;;;;1.08;68.39;97452.00;4938468;29;20034;-50